sensor_id;sensor_type;location;lat;lon;timestamp;P1;durP1;ratioP1;P2;durP2;ratioP2
71091;SDS011;58751;50.708;7.134;2022-08-25T00:01:13;3.67;;;3.37;;
71091;SDS011;58751;50.708;7.134;2022-08-25T00:03:38;10.80;;;3.70;;
71091;SDS011;58751;50.708;7.134;2022-08-25T00:06:04;4.00;;;3.60;;
71091;SDS011;58751;50.708;7.134;2022-08-25T00:08:29;6.00;;;3.13;;
71091;SDS011;58751;50.708;7.134;2022-08-25T00:10:54;4.80;;;3.20;;
71091;SDS011;58751;50.708;7.134;2022-08-25T00:13:21;4.60;;;3.63;;
71091;SDS011;58751;50.708;7.134;2022-08-25T00:15:46;4.70;;;3.87;;
71091;SDS011;58751;50.708;7.134;2022-08-25T00:18:11;3.73;;;3.43;;
71091;SDS011;58751;50.708;7.134;2022-08-25T00:20:37;3.67;;;3.40;;
71091;SDS011;58751;50.708;7.134;2022-08-25T00:23:02;7.03;;;4.20;;
71091;SDS011;58751;50.708;7.134;2022-08-25T00:25:27;6.83;;;4.20;;
71091;SDS011;58751;50.708;7.134;2022-08-25T00:27:52;6.23;;;4.50;;
71091;SDS011;58751;50.708;7.134;2022-08-25T00:30:19;4.17;;;3.87;;
71091;SDS011;58751;50.708;7.134;2022-08-25T00:32:45;4.27;;;3.90;;
71091;SDS011;58751;50.708;7.134;2022-08-25T00:35:10;4.90;;;4.00;;
71091;SDS011;58751;50.708;7.134;2022-08-25T00:37:35;3.90;;;3.60;;
71091;SDS011;58751;50.708;7.134;2022-08-25T00:40:01;4.23;;;3.83;;
71091;SDS011;58751;50.708;7.134;2022-08-25T00:42:26;3.80;;;3.50;;
71091;SDS011;58751;50.708;7.134;2022-08-25T00:44:51;4.10;;;3.80;;
71091;SDS011;58751;50.708;7.134;2022-08-25T00:47:18;3.83;;;3.53;;
71091;SDS011;58751;50.708;7.134;2022-08-25T00:49:44;3.37;;;3.07;;
71091;SDS011;58751;50.708;7.134;2022-08-25T00:52:11;7.53;;;4.30;;
71091;SDS011;58751;50.708;7.134;2022-08-25T00:54:38;4.60;;;3.80;;
71091;SDS011;58751;50.708;7.134;2022-08-25T00:57:05;3.87;;;3.57;;
71091;SDS011;58751;50.708;7.134;2022-08-25T00:59:30;5.33;;;3.73;;
71091;SDS011;58751;50.708;7.134;2022-08-25T01:01:56;6.40;;;4.07;;
71091;SDS011;58751;50.708;7.134;2022-08-25T01:04:23;4.93;;;4.40;;
71091;SDS011;58751;50.708;7.134;2022-08-25T01:06:49;7.97;;;4.47;;
71091;SDS011;58751;50.708;7.134;2022-08-25T01:09:14;4.13;;;3.43;;
71091;SDS011;58751;50.708;7.134;2022-08-25T01:11:39;4.13;;;3.83;;
71091;SDS011;58751;50.708;7.134;2022-08-25T01:14:05;4.63;;;4.33;;
71091;SDS011;58751;50.708;7.134;2022-08-25T01:16:31;6.33;;;4.43;;
71091;SDS011;58751;50.708;7.134;2022-08-25T01:18:56;8.37;;;4.57;;
71091;SDS011;58751;50.708;7.134;2022-08-25T01:21:24;5.60;;;4.50;;
71091;SDS011;58751;50.708;7.134;2022-08-25T01:23:50;4.27;;;3.87;;
71091;SDS011;58751;50.708;7.134;2022-08-25T01:26:16;5.03;;;4.30;;
71091;SDS011;58751;50.708;7.134;2022-08-25T01:28:43;5.60;;;4.80;;
71091;SDS011;58751;50.708;7.134;2022-08-25T01:31:08;4.83;;;4.43;;
71091;SDS011;58751;50.708;7.134;2022-08-25T01:33:34;3.77;;;3.47;;
71091;SDS011;58751;50.708;7.134;2022-08-25T01:35:59;5.30;;;4.60;;
71091;SDS011;58751;50.708;7.134;2022-08-25T01:38:25;3.83;;;3.53;;
71091;SDS011;58751;50.708;7.134;2022-08-25T01:40:51;4.50;;;4.13;;
71091;SDS011;58751;50.708;7.134;2022-08-25T01:43:20;4.43;;;3.93;;
71091;SDS011;58751;50.708;7.134;2022-08-25T01:45:46;5.53;;;4.90;;
71091;SDS011;58751;50.708;7.134;2022-08-25T01:48:12;6.30;;;4.73;;
71091;SDS011;58751;50.708;7.134;2022-08-25T01:50:37;4.73;;;4.33;;
71091;SDS011;58751;50.708;7.134;2022-08-25T01:53:03;4.60;;;4.23;;
71091;SDS011;58751;50.708;7.134;2022-08-25T01:55:32;8.70;;;4.57;;
71091;SDS011;58751;50.708;7.134;2022-08-25T01:57:57;5.47;;;4.30;;
71091;SDS011;58751;50.708;7.134;2022-08-25T02:00:22;6.23;;;4.47;;
71091;SDS011;58751;50.708;7.134;2022-08-25T02:02:48;5.37;;;4.30;;
71091;SDS011;58751;50.708;7.134;2022-08-25T02:05:13;5.50;;;4.70;;
71091;SDS011;58751;50.708;7.134;2022-08-25T02:07:39;4.83;;;4.30;;
71091;SDS011;58751;50.708;7.134;2022-08-25T02:10:05;6.23;;;4.60;;
71091;SDS011;58751;50.708;7.134;2022-08-25T02:12:32;5.27;;;4.37;;
71091;SDS011;58751;50.708;7.134;2022-08-25T02:14:58;6.97;;;5.30;;
71091;SDS011;58751;50.708;7.134;2022-08-25T02:17:23;5.60;;;5.10;;
71091;SDS011;58751;50.708;7.134;2022-08-25T02:19:48;8.30;;;5.17;;
71091;SDS011;58751;50.708;7.134;2022-08-25T02:22:14;5.90;;;4.90;;
71091;SDS011;58751;50.708;7.134;2022-08-25T02:24:39;5.30;;;4.40;;
71091;SDS011;58751;50.708;7.134;2022-08-25T02:27:04;5.10;;;4.70;;
71091;SDS011;58751;50.708;7.134;2022-08-25T02:29:31;5.40;;;4.90;;
71091;SDS011;58751;50.708;7.134;2022-08-25T02:31:56;6.13;;;4.63;;
71091;SDS011;58751;50.708;7.134;2022-08-25T02:34:22;5.73;;;4.30;;
71091;SDS011;58751;50.708;7.134;2022-08-25T02:36:47;6.70;;;4.63;;
71091;SDS011;58751;50.708;7.134;2022-08-25T02:39:12;6.03;;;5.20;;
71091;SDS011;58751;50.708;7.134;2022-08-25T02:41:37;5.20;;;4.80;;
71091;SDS011;58751;50.708;7.134;2022-08-25T02:44:03;5.20;;;4.53;;
71091;SDS011;58751;50.708;7.134;2022-08-25T02:46:29;5.17;;;4.67;;
71091;SDS011;58751;50.708;7.134;2022-08-25T02:48:55;5.23;;;4.77;;
71091;SDS011;58751;50.708;7.134;2022-08-25T02:51:20;5.20;;;4.80;;
71091;SDS011;58751;50.708;7.134;2022-08-25T02:53:46;7.00;;;4.70;;
71091;SDS011;58751;50.708;7.134;2022-08-25T02:56:12;5.43;;;4.90;;
71091;SDS011;58751;50.708;7.134;2022-08-25T02:58:38;5.23;;;4.80;;
71091;SDS011;58751;50.708;7.134;2022-08-25T03:01:04;6.43;;;4.70;;
71091;SDS011;58751;50.708;7.134;2022-08-25T03:03:30;6.13;;;4.63;;
71091;SDS011;58751;50.708;7.134;2022-08-25T03:05:56;7.23;;;5.90;;
71091;SDS011;58751;50.708;7.134;2022-08-25T03:08:21;6.90;;;5.67;;
71091;SDS011;58751;50.708;7.134;2022-08-25T03:10:46;5.00;;;4.60;;
71091;SDS011;58751;50.708;7.134;2022-08-25T03:13:12;5.50;;;4.80;;
71091;SDS011;58751;50.708;7.134;2022-08-25T03:15:37;5.50;;;5.00;;
71091;SDS011;58751;50.708;7.134;2022-08-25T03:18:02;5.47;;;5.07;;
71091;SDS011;58751;50.708;7.134;2022-08-25T03:20:29;4.77;;;4.47;;
71091;SDS011;58751;50.708;7.134;2022-08-25T03:22:55;5.10;;;4.80;;
71091;SDS011;58751;50.708;7.134;2022-08-25T03:25:20;8.53;;;5.00;;
71091;SDS011;58751;50.708;7.134;2022-08-25T03:27:45;7.70;;;5.70;;
71091;SDS011;58751;50.708;7.134;2022-08-25T03:30:11;8.23;;;5.23;;
71091;SDS011;58751;50.708;7.134;2022-08-25T03:32:36;6.77;;;4.87;;
71091;SDS011;58751;50.708;7.134;2022-08-25T03:35:02;6.43;;;5.77;;
71091;SDS011;58751;50.708;7.134;2022-08-25T03:37:29;5.73;;;5.10;;
71091;SDS011;58751;50.708;7.134;2022-08-25T03:39:54;5.77;;;5.23;;
71091;SDS011;58751;50.708;7.134;2022-08-25T03:42:19;5.67;;;5.10;;
71091;SDS011;58751;50.708;7.134;2022-08-25T03:44:44;5.37;;;4.93;;
71091;SDS011;58751;50.708;7.134;2022-08-25T03:47:09;6.07;;;5.20;;
71091;SDS011;58751;50.708;7.134;2022-08-25T03:49:35;8.73;;;5.20;;
71091;SDS011;58751;50.708;7.134;2022-08-25T03:52:00;5.67;;;4.97;;
71091;SDS011;58751;50.708;7.134;2022-08-25T03:54:27;7.60;;;5.33;;
71091;SDS011;58751;50.708;7.134;2022-08-25T03:56:52;5.77;;;5.20;;
71091;SDS011;58751;50.708;7.134;2022-08-25T03:59:18;6.07;;;5.20;;
71091;SDS011;58751;50.708;7.134;2022-08-25T04:01:43;7.40;;;5.20;;
71091;SDS011;58751;50.708;7.134;2022-08-25T04:04:10;5.90;;;5.40;;
71091;SDS011;58751;50.708;7.134;2022-08-25T04:06:36;5.60;;;4.80;;
71091;SDS011;58751;50.708;7.134;2022-08-25T04:09:02;7.57;;;5.70;;
71091;SDS011;58751;50.708;7.134;2022-08-25T04:11:28;6.10;;;5.20;;
71091;SDS011;58751;50.708;7.134;2022-08-25T04:13:54;5.93;;;4.80;;
71091;SDS011;58751;50.708;7.134;2022-08-25T04:16:21;5.87;;;5.47;;
71091;SDS011;58751;50.708;7.134;2022-08-25T04:18:49;7.43;;;5.20;;
71091;SDS011;58751;50.708;7.134;2022-08-25T04:21:16;5.60;;;5.10;;
71091;SDS011;58751;50.708;7.134;2022-08-25T04:23:41;5.47;;;5.03;;
71091;SDS011;58751;50.708;7.134;2022-08-25T04:26:07;6.67;;;5.40;;
71091;SDS011;58751;50.708;7.134;2022-08-25T04:28:34;8.43;;;5.40;;
71091;SDS011;58751;50.708;7.134;2022-08-25T04:31:00;5.90;;;5.37;;
71091;SDS011;58751;50.708;7.134;2022-08-25T04:33:25;10.20;;;5.87;;
71091;SDS011;58751;50.708;7.134;2022-08-25T04:35:50;7.53;;;5.17;;
71091;SDS011;58751;50.708;7.134;2022-08-25T04:38:15;7.23;;;5.50;;
71091;SDS011;58751;50.708;7.134;2022-08-25T04:40:41;11.27;;;6.10;;
71091;SDS011;58751;50.708;7.134;2022-08-25T04:43:06;9.27;;;6.27;;
71091;SDS011;58751;50.708;7.134;2022-08-25T04:45:36;6.10;;;5.53;;
71091;SDS011;58751;50.708;7.134;2022-08-25T04:48:01;9.30;;;5.87;;
71091;SDS011;58751;50.708;7.134;2022-08-25T04:50:26;6.40;;;5.50;;
71091;SDS011;58751;50.708;7.134;2022-08-25T04:52:52;6.63;;;5.93;;
71091;SDS011;58751;50.708;7.134;2022-08-25T04:55:17;7.37;;;6.53;;
71091;SDS011;58751;50.708;7.134;2022-08-25T04:57:42;7.90;;;5.60;;
71091;SDS011;58751;50.708;7.134;2022-08-25T05:00:08;11.40;;;6.37;;
71091;SDS011;58751;50.708;7.134;2022-08-25T05:02:34;11.77;;;6.30;;
71091;SDS011;58751;50.708;7.134;2022-08-25T05:05:00;6.70;;;5.50;;
71091;SDS011;58751;50.708;7.134;2022-08-25T05:07:25;6.40;;;5.90;;
71091;SDS011;58751;50.708;7.134;2022-08-25T05:09:50;6.47;;;5.80;;
71091;SDS011;58751;50.708;7.134;2022-08-25T05:12:15;6.93;;;5.63;;
71091;SDS011;58751;50.708;7.134;2022-08-25T05:14:41;6.23;;;5.73;;
71091;SDS011;58751;50.708;7.134;2022-08-25T05:17:06;8.27;;;6.03;;
71091;SDS011;58751;50.708;7.134;2022-08-25T05:19:32;8.53;;;5.47;;
71091;SDS011;58751;50.708;7.134;2022-08-25T05:21:58;5.90;;;5.40;;
71091;SDS011;58751;50.708;7.134;2022-08-25T05:24:23;7.00;;;5.77;;
71091;SDS011;58751;50.708;7.134;2022-08-25T05:26:48;8.13;;;5.70;;
71091;SDS011;58751;50.708;7.134;2022-08-25T05:29:13;8.80;;;5.63;;
71091;SDS011;58751;50.708;7.134;2022-08-25T05:31:39;8.77;;;5.30;;
71091;SDS011;58751;50.708;7.134;2022-08-25T05:34:04;7.10;;;5.00;;
71091;SDS011;58751;50.708;7.134;2022-08-25T05:36:31;5.60;;;4.57;;
71091;SDS011;58751;50.708;7.134;2022-08-25T05:38:56;7.70;;;5.13;;
71091;SDS011;58751;50.708;7.134;2022-08-25T05:41:24;6.30;;;5.20;;
71091;SDS011;58751;50.708;7.134;2022-08-25T05:43:50;5.60;;;5.10;;
71091;SDS011;58751;50.708;7.134;2022-08-25T05:46:15;6.33;;;4.77;;
71091;SDS011;58751;50.708;7.134;2022-08-25T05:48:41;6.60;;;5.57;;
71091;SDS011;58751;50.708;7.134;2022-08-25T05:51:07;6.87;;;5.20;;
71091;SDS011;58751;50.708;7.134;2022-08-25T05:53:34;4.87;;;4.30;;
71091;SDS011;58751;50.708;7.134;2022-08-25T05:55:59;9.60;;;4.80;;
71091;SDS011;58751;50.708;7.134;2022-08-25T05:58:25;5.97;;;4.97;;
71091;SDS011;58751;50.708;7.134;2022-08-25T06:00:50;6.20;;;4.70;;
71091;SDS011;58751;50.708;7.134;2022-08-25T06:03:15;5.33;;;4.60;;
71091;SDS011;58751;50.708;7.134;2022-08-25T06:05:41;6.07;;;4.53;;
71091;SDS011;58751;50.708;7.134;2022-08-25T06:08:06;4.93;;;4.37;;
71091;SDS011;58751;50.708;7.134;2022-08-25T06:10:33;5.90;;;5.17;;
71091;SDS011;58751;50.708;7.134;2022-08-25T06:12:58;6.70;;;4.80;;
71091;SDS011;58751;50.708;7.134;2022-08-25T06:15:24;8.40;;;5.23;;
71091;SDS011;58751;50.708;7.134;2022-08-25T06:17:50;7.37;;;5.30;;
71091;SDS011;58751;50.708;7.134;2022-08-25T06:20:16;6.80;;;4.37;;
71091;SDS011;58751;50.708;7.134;2022-08-25T06:22:42;10.23;;;5.60;;
71091;SDS011;58751;50.708;7.134;2022-08-25T06:25:08;10.23;;;4.70;;
71091;SDS011;58751;50.708;7.134;2022-08-25T06:27:35;8.23;;;4.40;;
71091;SDS011;58751;50.708;7.134;2022-08-25T06:30:00;6.03;;;4.40;;
71091;SDS011;58751;50.708;7.134;2022-08-25T06:32:25;8.20;;;4.53;;
71091;SDS011;58751;50.708;7.134;2022-08-25T06:34:50;5.20;;;4.37;;
71091;SDS011;58751;50.708;7.134;2022-08-25T06:37:16;6.33;;;4.40;;
71091;SDS011;58751;50.708;7.134;2022-08-25T06:39:41;8.63;;;4.70;;
71091;SDS011;58751;50.708;7.134;2022-08-25T06:42:06;6.23;;;3.93;;
71091;SDS011;58751;50.708;7.134;2022-08-25T06:44:33;4.80;;;4.40;;
71091;SDS011;58751;50.708;7.134;2022-08-25T06:46:58;4.47;;;4.03;;
71091;SDS011;58751;50.708;7.134;2022-08-25T06:49:23;5.23;;;4.10;;
71091;SDS011;58751;50.708;7.134;2022-08-25T06:51:48;4.80;;;4.33;;
71091;SDS011;58751;50.708;7.134;2022-08-25T06:54:14;4.60;;;4.23;;
71091;SDS011;58751;50.708;7.134;2022-08-25T06:56:39;6.83;;;4.80;;
71091;SDS011;58751;50.708;7.134;2022-08-25T06:59:06;5.53;;;4.37;;
71091;SDS011;58751;50.708;7.134;2022-08-25T07:01:33;5.50;;;5.00;;
71091;SDS011;58751;50.708;7.134;2022-08-25T07:03:59;5.30;;;4.80;;
71091;SDS011;58751;50.708;7.134;2022-08-25T07:06:25;4.93;;;4.50;;
71091;SDS011;58751;50.708;7.134;2022-08-25T07:08:51;5.03;;;4.10;;
71091;SDS011;58751;50.708;7.134;2022-08-25T07:11:16;5.93;;;4.40;;
71091;SDS011;58751;50.708;7.134;2022-08-25T07:13:41;6.33;;;5.73;;
71091;SDS011;58751;50.708;7.134;2022-08-25T07:16:07;5.10;;;3.80;;
71091;SDS011;58751;50.708;7.134;2022-08-25T07:18:34;7.13;;;4.70;;
71091;SDS011;58751;50.708;7.134;2022-08-25T07:20:59;6.47;;;4.30;;
71091;SDS011;58751;50.708;7.134;2022-08-25T07:23:25;7.67;;;4.13;;
71091;SDS011;58751;50.708;7.134;2022-08-25T07:25:50;4.30;;;3.90;;
71091;SDS011;58751;50.708;7.134;2022-08-25T07:28:16;7.83;;;4.73;;
71091;SDS011;58751;50.708;7.134;2022-08-25T07:30:41;7.90;;;4.87;;
71091;SDS011;58751;50.708;7.134;2022-08-25T07:33:06;5.93;;;5.07;;
71091;SDS011;58751;50.708;7.134;2022-08-25T07:35:33;5.33;;;4.00;;
71091;SDS011;58751;50.708;7.134;2022-08-25T07:37:59;6.20;;;4.10;;
71091;SDS011;58751;50.708;7.134;2022-08-25T07:40:25;4.83;;;4.40;;
71091;SDS011;58751;50.708;7.134;2022-08-25T07:42:51;4.80;;;4.40;;
71091;SDS011;58751;50.708;7.134;2022-08-25T07:45:17;5.07;;;4.63;;
71091;SDS011;58751;50.708;7.134;2022-08-25T07:47:42;5.40;;;4.70;;
71091;SDS011;58751;50.708;7.134;2022-08-25T07:50:08;6.27;;;5.73;;
71091;SDS011;58751;50.708;7.134;2022-08-25T07:52:35;5.53;;;5.03;;
71091;SDS011;58751;50.708;7.134;2022-08-25T07:55:01;5.90;;;4.67;;
71091;SDS011;58751;50.708;7.134;2022-08-25T07:57:26;5.17;;;4.77;;
71091;SDS011;58751;50.708;7.134;2022-08-25T07:59:51;6.10;;;5.60;;
71091;SDS011;58751;50.708;7.134;2022-08-25T08:02:17;5.53;;;5.07;;
71091;SDS011;58751;50.708;7.134;2022-08-25T08:04:42;6.20;;;4.57;;
71091;SDS011;58751;50.708;7.134;2022-08-25T08:07:07;5.10;;;4.70;;
71091;SDS011;58751;50.708;7.134;2022-08-25T08:09:34;6.00;;;5.50;;
71091;SDS011;58751;50.708;7.134;2022-08-25T08:12:00;5.87;;;5.37;;
71091;SDS011;58751;50.708;7.134;2022-08-25T08:14:25;7.50;;;6.13;;
71091;SDS011;58751;50.708;7.134;2022-08-25T08:16:50;5.37;;;4.90;;
71091;SDS011;58751;50.708;7.134;2022-08-25T08:19:16;5.70;;;5.40;;
71091;SDS011;58751;50.708;7.134;2022-08-25T08:21:41;5.07;;;4.73;;
71091;SDS011;58751;50.708;7.134;2022-08-25T08:24:06;6.73;;;6.10;;
71091;SDS011;58751;50.708;7.134;2022-08-25T08:26:33;5.90;;;5.37;;
71091;SDS011;58751;50.708;7.134;2022-08-25T08:28:59;4.93;;;4.53;;
71091;SDS011;58751;50.708;7.134;2022-08-25T08:31:24;5.70;;;5.20;;
71091;SDS011;58751;50.708;7.134;2022-08-25T08:33:50;7.20;;;5.30;;
71091;SDS011;58751;50.708;7.134;2022-08-25T08:36:16;5.83;;;5.33;;
71091;SDS011;58751;50.708;7.134;2022-08-25T08:38:41;6.03;;;5.53;;
71091;SDS011;58751;50.708;7.134;2022-08-25T08:41:11;5.57;;;5.17;;
71091;SDS011;58751;50.708;7.134;2022-08-25T08:43:39;5.63;;;5.13;;
71091;SDS011;58751;50.708;7.134;2022-08-25T08:46:06;5.87;;;5.47;;
71091;SDS011;58751;50.708;7.134;2022-08-25T08:48:43;6.13;;;5.53;;
71091;SDS011;58751;50.708;7.134;2022-08-25T08:51:13;5.50;;;5.10;;
71091;SDS011;58751;50.708;7.134;2022-08-25T08:53:41;5.73;;;5.20;;
71091;SDS011;58751;50.708;7.134;2022-08-25T08:56:08;9.37;;;5.30;;
71091;SDS011;58751;50.708;7.134;2022-08-25T08:58:35;5.60;;;5.10;;
71091;SDS011;58751;50.708;7.134;2022-08-25T09:01:04;5.00;;;4.70;;
71091;SDS011;58751;50.708;7.134;2022-08-25T09:03:30;5.37;;;4.97;;
71091;SDS011;58751;50.708;7.134;2022-08-25T09:05:59;5.50;;;5.00;;
71091;SDS011;58751;50.708;7.134;2022-08-25T09:08:25;4.97;;;4.57;;
71091;SDS011;58751;50.708;7.134;2022-08-25T09:10:54;5.23;;;4.73;;
71091;SDS011;58751;50.708;7.134;2022-08-25T09:13:24;5.23;;;4.67;;
71091;SDS011;58751;50.708;7.134;2022-08-25T09:15:53;5.13;;;4.70;;
71091;SDS011;58751;50.708;7.134;2022-08-25T09:18:22;5.83;;;4.30;;
71091;SDS011;58751;50.708;7.134;2022-08-25T09:20:53;4.93;;;4.53;;
71091;SDS011;58751;50.708;7.134;2022-08-25T09:23:29;5.10;;;4.70;;
71091;SDS011;58751;50.708;7.134;2022-08-25T09:25:59;4.60;;;4.30;;
71091;SDS011;58751;50.708;7.134;2022-08-25T09:28:28;5.10;;;4.63;;
71091;SDS011;58751;50.708;7.134;2022-08-25T09:30:58;5.60;;;5.13;;
71091;SDS011;58751;50.708;7.134;2022-08-25T09:33:25;5.87;;;5.37;;
71091;SDS011;58751;50.708;7.134;2022-08-25T09:35:52;9.00;;;4.80;;
71091;SDS011;58751;50.708;7.134;2022-08-25T09:38:17;5.90;;;5.50;;
71091;SDS011;58751;50.708;7.134;2022-08-25T09:40:44;5.90;;;5.10;;
71091;SDS011;58751;50.708;7.134;2022-08-25T09:43:17;6.10;;;5.60;;
71091;SDS011;58751;50.708;7.134;2022-08-25T09:45:44;5.73;;;5.23;;
71091;SDS011;58751;50.708;7.134;2022-08-25T09:48:19;5.80;;;5.40;;
71091;SDS011;58751;50.708;7.134;2022-08-25T09:50:47;5.63;;;5.13;;
71091;SDS011;58751;50.708;7.134;2022-08-25T09:53:12;5.53;;;5.03;;
71091;SDS011;58751;50.708;7.134;2022-08-25T09:55:38;5.40;;;4.90;;
71091;SDS011;58751;50.708;7.134;2022-08-25T09:58:12;6.33;;;5.83;;
71091;SDS011;58751;50.708;7.134;2022-08-25T10:00:38;8.40;;;5.73;;
71091;SDS011;58751;50.708;7.134;2022-08-25T10:03:05;5.50;;;5.10;;
71091;SDS011;58751;50.708;7.134;2022-08-25T10:05:31;7.00;;;5.20;;
71091;SDS011;58751;50.708;7.134;2022-08-25T10:07:58;6.37;;;5.77;;
71091;SDS011;58751;50.708;7.134;2022-08-25T10:10:27;5.43;;;4.93;;
71091;SDS011;58751;50.708;7.134;2022-08-25T10:12:52;4.93;;;4.47;;
71091;SDS011;58751;50.708;7.134;2022-08-25T10:15:18;5.13;;;4.83;;
71091;SDS011;58751;50.708;7.134;2022-08-25T10:17:44;5.27;;;4.77;;
71091;SDS011;58751;50.708;7.134;2022-08-25T10:20:15;5.77;;;5.27;;
71091;SDS011;58751;50.708;7.134;2022-08-25T10:22:41;5.10;;;4.63;;
71091;SDS011;58751;50.708;7.134;2022-08-25T10:25:09;5.40;;;5.00;;
71091;SDS011;58751;50.708;7.134;2022-08-25T10:27:35;5.70;;;5.13;;
71091;SDS011;58751;50.708;7.134;2022-08-25T10:30:05;5.20;;;4.87;;
71091;SDS011;58751;50.708;7.134;2022-08-25T10:32:34;5.40;;;4.93;;
71091;SDS011;58751;50.708;7.134;2022-08-25T10:35:03;5.57;;;5.07;;
71091;SDS011;58751;50.708;7.134;2022-08-25T10:37:31;5.00;;;4.60;;
71091;SDS011;58751;50.708;7.134;2022-08-25T10:40:03;6.03;;;5.47;;
71091;SDS011;58751;50.708;7.134;2022-08-25T10:42:33;5.23;;;4.93;;
71091;SDS011;58751;50.708;7.134;2022-08-25T10:45:15;7.87;;;7.27;;
71091;SDS011;58751;50.708;7.134;2022-08-25T10:47:47;6.47;;;5.97;;
71091;SDS011;58751;50.708;7.134;2022-08-25T10:50:17;5.90;;;5.17;;
71091;SDS011;58751;50.708;7.134;2022-08-25T10:52:50;5.17;;;4.87;;
71091;SDS011;58751;50.708;7.134;2022-08-25T10:55:19;4.90;;;4.60;;
71091;SDS011;58751;50.708;7.134;2022-08-25T10:57:52;5.40;;;5.00;;
71091;SDS011;58751;50.708;7.134;2022-08-25T11:00:20;5.23;;;4.73;;
71091;SDS011;58751;50.708;7.134;2022-08-25T11:03:04;5.00;;;4.60;;
71091;SDS011;58751;50.708;7.134;2022-08-25T11:05:32;5.43;;;4.93;;
71091;SDS011;58751;50.708;7.134;2022-08-25T11:08:00;5.63;;;5.13;;
71091;SDS011;58751;50.708;7.134;2022-08-25T11:10:30;5.57;;;5.17;;
71091;SDS011;58751;50.708;7.134;2022-08-25T11:13:00;5.17;;;4.67;;
71091;SDS011;58751;50.708;7.134;2022-08-25T11:15:28;10.63;;;8.07;;
71091;SDS011;58751;50.708;7.134;2022-08-25T11:17:55;5.23;;;4.80;;
71091;SDS011;58751;50.708;7.134;2022-08-25T11:20:22;5.17;;;4.70;;
71091;SDS011;58751;50.708;7.134;2022-08-25T11:22:49;5.17;;;4.77;;
71091;SDS011;58751;50.708;7.134;2022-08-25T11:25:17;5.50;;;4.83;;
71091;SDS011;58751;50.708;7.134;2022-08-25T11:27:44;4.80;;;4.37;;
71091;SDS011;58751;50.708;7.134;2022-08-25T11:30:12;5.17;;;4.77;;
71091;SDS011;58751;50.708;7.134;2022-08-25T11:32:37;7.10;;;4.70;;
71091;SDS011;58751;50.708;7.134;2022-08-25T11:35:03;5.40;;;4.93;;
71091;SDS011;58751;50.708;7.134;2022-08-25T11:37:29;5.50;;;5.10;;
71091;SDS011;58751;50.708;7.134;2022-08-25T11:42:42;6.20;;;4.53;;
71091;SDS011;58751;50.708;7.134;2022-08-25T11:45:14;4.80;;;4.50;;
71091;SDS011;58751;50.708;7.134;2022-08-25T11:47:52;5.37;;;4.87;;
71091;SDS011;58751;50.708;7.134;2022-08-25T11:50:25;5.73;;;4.40;;
71091;SDS011;58751;50.708;7.134;2022-08-25T11:52:51;6.20;;;5.50;;
71091;SDS011;58751;50.708;7.134;2022-08-25T11:55:18;5.90;;;5.50;;
71091;SDS011;58751;50.708;7.134;2022-08-25T11:57:44;4.93;;;4.63;;
71091;SDS011;58751;50.708;7.134;2022-08-25T12:00:11;5.50;;;4.20;;
71091;SDS011;58751;50.708;7.134;2022-08-25T12:02:39;5.57;;;4.30;;
71091;SDS011;58751;50.708;7.134;2022-08-25T12:05:05;4.67;;;4.23;;
71091;SDS011;58751;50.708;7.134;2022-08-25T12:10:20;4.60;;;4.20;;
71091;SDS011;58751;50.708;7.134;2022-08-25T12:12:56;5.13;;;4.70;;
71091;SDS011;58751;50.708;7.134;2022-08-25T12:15:22;5.60;;;5.20;;
71091;SDS011;58751;50.708;7.134;2022-08-25T12:18:06;5.33;;;4.33;;
71091;SDS011;58751;50.708;7.134;2022-08-25T12:23:15;6.13;;;4.87;;
71091;SDS011;58751;50.708;7.134;2022-08-25T12:25:48;7.30;;;5.00;;
71091;SDS011;58751;50.708;7.134;2022-08-25T12:28:25;6.33;;;5.83;;
71091;SDS011;58751;50.708;7.134;2022-08-25T12:30:55;5.03;;;4.70;;
71091;SDS011;58751;50.708;7.134;2022-08-25T12:33:25;5.50;;;5.10;;
71091;SDS011;58751;50.708;7.134;2022-08-25T12:35:55;5.03;;;4.63;;
71091;SDS011;58751;50.708;7.134;2022-08-25T12:38:26;5.17;;;4.77;;
71091;SDS011;58751;50.708;7.134;2022-08-25T12:40:53;5.00;;;4.70;;
71091;SDS011;58751;50.708;7.134;2022-08-25T12:43:22;5.57;;;5.07;;
71091;SDS011;58751;50.708;7.134;2022-08-25T12:45:49;7.70;;;5.00;;
71091;SDS011;58751;50.708;7.134;2022-08-25T12:51:00;4.80;;;4.37;;
71091;SDS011;58751;50.708;7.134;2022-08-25T12:53:29;5.07;;;4.60;;
71091;SDS011;58751;50.708;7.134;2022-08-25T12:55:59;5.17;;;4.73;;
71091;SDS011;58751;50.708;7.134;2022-08-25T12:58:27;4.83;;;4.43;;
71091;SDS011;58751;50.708;7.134;2022-08-25T13:01:03;4.83;;;4.53;;
71091;SDS011;58751;50.708;7.134;2022-08-25T13:03:41;4.33;;;4.03;;
71091;SDS011;58751;50.708;7.134;2022-08-25T13:06:16;5.77;;;5.30;;
71091;SDS011;58751;50.708;7.134;2022-08-25T13:08:59;4.67;;;4.27;;
71091;SDS011;58751;50.708;7.134;2022-08-25T13:11:30;5.80;;;4.13;;
71091;SDS011;58751;50.708;7.134;2022-08-25T13:13:59;4.07;;;3.87;;
71091;SDS011;58751;50.708;7.134;2022-08-25T13:16:25;5.30;;;4.90;;
71091;SDS011;58751;50.708;7.134;2022-08-25T13:18:51;5.67;;;4.20;;
71091;SDS011;58751;50.708;7.134;2022-08-25T13:21:18;5.37;;;4.93;;
71091;SDS011;58751;50.708;7.134;2022-08-25T13:23:45;4.70;;;4.30;;
71091;SDS011;58751;50.708;7.134;2022-08-25T13:26:11;4.80;;;4.33;;
71091;SDS011;58751;50.708;7.134;2022-08-25T13:28:38;4.80;;;4.50;;
71091;SDS011;58751;50.708;7.134;2022-08-25T13:31:06;3.83;;;3.30;;
71091;SDS011;58751;50.708;7.134;2022-08-25T13:33:32;4.50;;;4.20;;
71091;SDS011;58751;50.708;7.134;2022-08-25T13:35:58;3.83;;;3.53;;
71091;SDS011;58751;50.708;7.134;2022-08-25T13:38:25;4.43;;;3.37;;
71091;SDS011;58751;50.708;7.134;2022-08-25T13:40:50;3.80;;;3.50;;
71091;SDS011;58751;50.708;7.134;2022-08-25T13:43:26;4.40;;;3.73;;
71091;SDS011;58751;50.708;7.134;2022-08-25T13:45:51;4.10;;;3.73;;
71091;SDS011;58751;50.708;7.134;2022-08-25T13:48:30;4.80;;;3.50;;
71091;SDS011;58751;50.708;7.134;2022-08-25T13:51:02;3.80;;;3.53;;
71091;SDS011;58751;50.708;7.134;2022-08-25T13:53:31;8.07;;;3.90;;
71091;SDS011;58751;50.708;7.134;2022-08-25T13:55:57;4.27;;;4.03;;
71091;SDS011;58751;50.708;7.134;2022-08-25T13:58:24;4.00;;;3.70;;
71091;SDS011;58751;50.708;7.134;2022-08-25T14:01:00;5.23;;;3.63;;
71091;SDS011;58751;50.708;7.134;2022-08-25T14:03:30;3.80;;;3.50;;
71091;SDS011;58751;50.708;7.134;2022-08-25T14:06:02;4.10;;;3.80;;
71091;SDS011;58751;50.708;7.134;2022-08-25T14:08:29;4.00;;;3.60;;
71091;SDS011;58751;50.708;7.134;2022-08-25T14:11:04;4.17;;;3.87;;
71091;SDS011;58751;50.708;7.134;2022-08-25T14:13:31;4.00;;;3.60;;
71091;SDS011;58751;50.708;7.134;2022-08-25T14:16:05;5.73;;;3.60;;
71091;SDS011;58751;50.708;7.134;2022-08-25T14:18:30;4.13;;;3.33;;
71091;SDS011;58751;50.708;7.134;2022-08-25T14:20:56;3.33;;;3.10;;
71091;SDS011;58751;50.708;7.134;2022-08-25T14:23:22;3.93;;;3.57;;
71091;SDS011;58751;50.708;7.134;2022-08-25T14:25:48;3.30;;;3.10;;
71091;SDS011;58751;50.708;7.134;2022-08-25T14:28:16;3.40;;;3.20;;
71091;SDS011;58751;50.708;7.134;2022-08-25T14:30:43;3.23;;;3.03;;
71091;SDS011;58751;50.708;7.134;2022-08-25T14:33:09;3.73;;;3.40;;
71091;SDS011;58751;50.708;7.134;2022-08-25T14:35:34;3.73;;;3.33;;
71091;SDS011;58751;50.708;7.134;2022-08-25T14:38:00;3.20;;;3.00;;
71091;SDS011;58751;50.708;7.134;2022-08-25T14:40:25;3.60;;;3.30;;
71091;SDS011;58751;50.708;7.134;2022-08-25T14:42:51;5.00;;;3.23;;
71091;SDS011;58751;50.708;7.134;2022-08-25T14:45:17;3.97;;;3.60;;
71091;SDS011;58751;50.708;7.134;2022-08-25T14:47:43;5.17;;;3.53;;
71091;SDS011;58751;50.708;7.134;2022-08-25T14:50:09;3.67;;;3.37;;
71091;SDS011;58751;50.708;7.134;2022-08-25T14:52:34;3.93;;;3.63;;
71091;SDS011;58751;50.708;7.134;2022-08-25T14:54:59;7.23;;;3.77;;
71091;SDS011;58751;50.708;7.134;2022-08-25T14:57:25;3.63;;;3.33;;